sensor_id;sensor_type;location;lat;lon;timestamp;P1;durP1;ratioP1;P2;durP2;ratioP2
68097;SDS011;54886;47.036;15.466;2023-09-18T00:02:23;7.60;;;4.70;;
68097;SDS011;54886;47.036;15.466;2023-09-18T00:04:49;7.63;;;5.00;;
68097;SDS011;54886;47.036;15.466;2023-09-18T00:07:14;6.25;;;4.43;;
68097;SDS011;54886;47.036;15.466;2023-09-18T00:09:40;6.32;;;4.80;;
68097;SDS011;54886;47.036;15.466;2023-09-18T00:12:05;6.25;;;4.68;;
68097;SDS011;54886;47.036;15.466;2023-09-18T00:14:31;7.30;;;4.70;;
68097;SDS011;54886;47.036;15.466;2023-09-18T00:16:57;6.72;;;4.63;;
68097;SDS011;54886;47.036;15.466;2023-09-18T00:19:23;6.43;;;4.65;;
68097;SDS011;54886;47.036;15.466;2023-09-18T00:21:49;7.22;;;4.93;;
68097;SDS011;54886;47.036;15.466;2023-09-18T00:24:14;7.25;;;4.60;;
68097;SDS011;54886;47.036;15.466;2023-09-18T00:26:40;8.50;;;4.75;;
68097;SDS011;54886;47.036;15.466;2023-09-18T00:29:05;6.45;;;4.50;;
68097;SDS011;54886;47.036;15.466;2023-09-18T00:31:30;7.40;;;4.80;;
68097;SDS011;54886;47.036;15.466;2023-09-18T00:33:56;7.65;;;5.03;;
68097;SDS011;54886;47.036;15.466;2023-09-18T00:36:21;8.07;;;5.32;;
68097;SDS011;54886;47.036;15.466;2023-09-18T00:38:46;7.55;;;5.30;;
68097;SDS011;54886;47.036;15.466;2023-09-18T00:41:12;6.85;;;4.80;;
68097;SDS011;54886;47.036;15.466;2023-09-18T00:43:37;6.13;;;4.80;;
68097;SDS011;54886;47.036;15.466;2023-09-18T00:46:03;7.00;;;4.93;;
68097;SDS011;54886;47.036;15.466;2023-09-18T00:48:28;8.23;;;5.05;;
68097;SDS011;54886;47.036;15.466;2023-09-18T00:50:54;6.68;;;4.40;;
68097;SDS011;54886;47.036;15.466;2023-09-18T00:53:22;6.70;;;4.70;;
68097;SDS011;54886;47.036;15.466;2023-09-18T00:58:16;7.35;;;4.80;;
68097;SDS011;54886;47.036;15.466;2023-09-18T01:00:41;7.60;;;5.00;;
68097;SDS011;54886;47.036;15.466;2023-09-18T01:03:08;7.15;;;4.95;;
68097;SDS011;54886;47.036;15.466;2023-09-18T01:05:33;9.25;;;4.72;;
68097;SDS011;54886;47.036;15.466;2023-09-18T01:07:59;7.40;;;4.82;;
68097;SDS011;54886;47.036;15.466;2023-09-18T01:10:24;6.68;;;4.97;;
68097;SDS011;54886;47.036;15.466;2023-09-18T01:13:08;7.22;;;4.40;;
68097;SDS011;54886;47.036;15.466;2023-09-18T01:15:43;7.20;;;4.82;;
68097;SDS011;54886;47.036;15.466;2023-09-18T01:18:13;6.43;;;4.57;;
68097;SDS011;54886;47.036;15.466;2023-09-18T01:20:39;7.78;;;5.32;;
68097;SDS011;54886;47.036;15.466;2023-09-18T01:23:04;8.65;;;4.60;;
68097;SDS011;54886;47.036;15.466;2023-09-18T01:25:30;6.57;;;4.95;;
68097;SDS011;54886;47.036;15.466;2023-09-18T01:27:58;7.05;;;4.90;;
68097;SDS011;54886;47.036;15.466;2023-09-18T01:30:23;8.18;;;4.70;;
68097;SDS011;54886;47.036;15.466;2023-09-18T01:32:49;6.35;;;4.45;;
68097;SDS011;54886;47.036;15.466;2023-09-18T01:35:15;6.22;;;4.43;;
68097;SDS011;54886;47.036;15.466;2023-09-18T01:37:41;6.43;;;4.70;;
68097;SDS011;54886;47.036;15.466;2023-09-18T01:40:07;6.25;;;4.22;;
68097;SDS011;54886;47.036;15.466;2023-09-18T01:42:33;6.53;;;4.43;;
68097;SDS011;54886;47.036;15.466;2023-09-18T01:45:00;6.32;;;4.68;;
68097;SDS011;54886;47.036;15.466;2023-09-18T01:47:25;6.13;;;4.47;;
68097;SDS011;54886;47.036;15.466;2023-09-18T01:49:54;6.97;;;4.82;;
68097;SDS011;54886;47.036;15.466;2023-09-18T01:52:19;5.72;;;4.28;;
68097;SDS011;54886;47.036;15.466;2023-09-18T01:54:45;6.82;;;4.43;;
68097;SDS011;54886;47.036;15.466;2023-09-18T01:57:10;7.68;;;4.60;;
68097;SDS011;54886;47.036;15.466;2023-09-18T01:59:37;8.88;;;4.97;;
68097;SDS011;54886;47.036;15.466;2023-09-18T02:02:03;6.20;;;4.75;;
68097;SDS011;54886;47.036;15.466;2023-09-18T02:04:31;8.10;;;5.53;;
68097;SDS011;54886;47.036;15.466;2023-09-18T02:06:57;6.63;;;4.88;;
68097;SDS011;54886;47.036;15.466;2023-09-18T02:09:23;6.28;;;4.50;;
68097;SDS011;54886;47.036;15.466;2023-09-18T02:11:48;6.20;;;4.60;;
68097;SDS011;54886;47.036;15.466;2023-09-18T02:14:14;6.55;;;4.50;;
68097;SDS011;54886;47.036;15.466;2023-09-18T02:16:40;6.13;;;4.70;;
68097;SDS011;54886;47.036;15.466;2023-09-18T02:19:07;6.72;;;4.47;;
68097;SDS011;54886;47.036;15.466;2023-09-18T02:21:33;7.82;;;4.88;;
68097;SDS011;54886;47.036;15.466;2023-09-18T02:23:59;8.05;;;4.55;;
68097;SDS011;54886;47.036;15.466;2023-09-18T02:26:25;6.80;;;5.00;;
68097;SDS011;54886;47.036;15.466;2023-09-18T02:28:52;6.40;;;4.53;;
68097;SDS011;54886;47.036;15.466;2023-09-18T02:31:21;7.72;;;4.88;;
68097;SDS011;54886;47.036;15.466;2023-09-18T02:33:47;7.05;;;4.43;;
68097;SDS011;54886;47.036;15.466;2023-09-18T02:36:12;7.30;;;4.63;;
68097;SDS011;54886;47.036;15.466;2023-09-18T02:38:38;8.10;;;5.32;;
68097;SDS011;54886;47.036;15.466;2023-09-18T02:41:04;8.13;;;4.95;;
68097;SDS011;54886;47.036;15.466;2023-09-18T02:43:30;7.00;;;4.93;;
68097;SDS011;54886;47.036;15.466;2023-09-18T02:45:55;8.20;;;5.10;;
68097;SDS011;54886;47.036;15.466;2023-09-18T02:48:20;6.85;;;4.55;;
68097;SDS011;54886;47.036;15.466;2023-09-18T02:50:46;7.70;;;4.75;;
68097;SDS011;54886;47.036;15.466;2023-09-18T02:53:16;7.57;;;4.90;;
68097;SDS011;54886;47.036;15.466;2023-09-18T02:55:45;7.03;;;4.80;;
68097;SDS011;54886;47.036;15.466;2023-09-18T02:58:14;7.60;;;5.25;;
68097;SDS011;54886;47.036;15.466;2023-09-18T03:00:45;8.07;;;4.90;;
68097;SDS011;54886;47.036;15.466;2023-09-18T03:03:14;9.27;;;5.25;;
68097;SDS011;54886;47.036;15.466;2023-09-18T03:05:41;7.68;;;5.07;;
68097;SDS011;54886;47.036;15.466;2023-09-18T03:08:07;8.45;;;5.80;;
68097;SDS011;54886;47.036;15.466;2023-09-18T03:10:34;9.02;;;5.88;;
68097;SDS011;54886;47.036;15.466;2023-09-18T03:13:01;9.13;;;5.80;;
68097;SDS011;54886;47.036;15.466;2023-09-18T03:15:29;7.68;;;5.60;;
68097;SDS011;54886;47.036;15.466;2023-09-18T03:17:55;7.88;;;5.38;;
68097;SDS011;54886;47.036;15.466;2023-09-18T03:20:22;6.97;;;4.80;;
68097;SDS011;54886;47.036;15.466;2023-09-18T03:22:49;7.97;;;4.73;;
68097;SDS011;54886;47.036;15.466;2023-09-18T03:25:15;9.20;;;5.80;;
68097;SDS011;54886;47.036;15.466;2023-09-18T03:27:41;7.40;;;5.28;;
68097;SDS011;54886;47.036;15.466;2023-09-18T03:30:06;8.20;;;5.72;;
68097;SDS011;54886;47.036;15.466;2023-09-18T03:32:32;8.93;;;5.97;;
68097;SDS011;54886;47.036;15.466;2023-09-18T03:34:58;10.23;;;6.25;;
68097;SDS011;54886;47.036;15.466;2023-09-18T03:37:23;8.95;;;5.53;;
68097;SDS011;54886;47.036;15.466;2023-09-18T03:39:48;11.80;;;6.80;;
68097;SDS011;54886;47.036;15.466;2023-09-18T03:42:14;8.95;;;5.88;;
68097;SDS011;54886;47.036;15.466;2023-09-18T03:44:39;11.05;;;5.78;;
68097;SDS011;54886;47.036;15.466;2023-09-18T03:47:05;8.40;;;6.00;;
68097;SDS011;54886;47.036;15.466;2023-09-18T03:49:30;9.10;;;5.88;;
68097;SDS011;54886;47.036;15.466;2023-09-18T03:51:55;9.98;;;6.30;;
68097;SDS011;54886;47.036;15.466;2023-09-18T03:54:21;9.43;;;5.97;;
68097;SDS011;54886;47.036;15.466;2023-09-18T03:56:46;7.97;;;5.80;;
68097;SDS011;54886;47.036;15.466;2023-09-18T03:59:12;9.57;;;6.72;;
68097;SDS011;54886;47.036;15.466;2023-09-18T04:01:38;8.60;;;5.78;;
68097;SDS011;54886;47.036;15.466;2023-09-18T04:04:04;9.48;;;6.55;;
68097;SDS011;54886;47.036;15.466;2023-09-18T04:06:35;9.02;;;6.65;;
68097;SDS011;54886;47.036;15.466;2023-09-18T04:09:03;9.75;;;6.68;;
68097;SDS011;54886;47.036;15.466;2023-09-18T04:11:28;9.68;;;6.95;;
68097;SDS011;54886;47.036;15.466;2023-09-18T04:13:57;8.50;;;6.05;;
68097;SDS011;54886;47.036;15.466;2023-09-18T04:16:25;9.60;;;6.93;;
68097;SDS011;54886;47.036;15.466;2023-09-18T04:18:52;9.47;;;6.60;;
68097;SDS011;54886;47.036;15.466;2023-09-18T04:21:18;8.85;;;6.05;;
68097;SDS011;54886;47.036;15.466;2023-09-18T04:23:43;8.90;;;6.20;;
68097;SDS011;54886;47.036;15.466;2023-09-18T04:26:09;9.43;;;6.68;;
68097;SDS011;54886;47.036;15.466;2023-09-18T04:28:35;9.05;;;6.43;;
68097;SDS011;54886;47.036;15.466;2023-09-18T04:31:00;10.02;;;5.80;;
68097;SDS011;54886;47.036;15.466;2023-09-18T04:33:25;10.57;;;6.25;;
68097;SDS011;54886;47.036;15.466;2023-09-18T04:38:18;8.65;;;5.93;;
68097;SDS011;54886;47.036;15.466;2023-09-18T04:40:44;9.73;;;5.60;;
68097;SDS011;54886;47.036;15.466;2023-09-18T04:43:11;10.88;;;6.32;;
68097;SDS011;54886;47.036;15.466;2023-09-18T04:45:36;9.40;;;5.93;;
68097;SDS011;54886;47.036;15.466;2023-09-18T04:48:02;10.07;;;6.68;;
68097;SDS011;54886;47.036;15.466;2023-09-18T04:50:28;10.23;;;6.88;;
68097;SDS011;54886;47.036;15.466;2023-09-18T04:52:53;8.10;;;5.70;;
68097;SDS011;54886;47.036;15.466;2023-09-18T04:55:20;8.93;;;6.45;;
68097;SDS011;54886;47.036;15.466;2023-09-18T04:57:46;9.88;;;5.85;;
68097;SDS011;54886;47.036;15.466;2023-09-18T05:00:12;10.88;;;6.15;;
68097;SDS011;54886;47.036;15.466;2023-09-18T05:02:39;7.82;;;5.75;;
68097;SDS011;54886;47.036;15.466;2023-09-18T05:05:05;8.55;;;6.15;;
68097;SDS011;54886;47.036;15.466;2023-09-18T05:07:33;8.77;;;5.82;;
68097;SDS011;54886;47.036;15.466;2023-09-18T05:09:59;7.63;;;5.80;;
68097;SDS011;54886;47.036;15.466;2023-09-18T05:12:24;10.48;;;6.10;;
68097;SDS011;54886;47.036;15.466;2023-09-18T05:14:50;9.15;;;5.78;;
68097;SDS011;54886;47.036;15.466;2023-09-18T05:17:17;8.82;;;5.72;;
68097;SDS011;54886;47.036;15.466;2023-09-18T05:19:43;9.18;;;6.13;;
68097;SDS011;54886;47.036;15.466;2023-09-18T05:22:09;11.23;;;5.63;;
68097;SDS011;54886;47.036;15.466;2023-09-18T05:24:38;9.10;;;6.47;;
68097;SDS011;54886;47.036;15.466;2023-09-18T05:27:04;8.55;;;5.75;;
68097;SDS011;54886;47.036;15.466;2023-09-18T05:29:31;9.88;;;6.10;;
68097;SDS011;54886;47.036;15.466;2023-09-18T05:31:56;10.68;;;6.35;;
68097;SDS011;54886;47.036;15.466;2023-09-18T05:34:22;8.68;;;6.00;;
68097;SDS011;54886;47.036;15.466;2023-09-18T05:36:47;10.25;;;6.47;;
68097;SDS011;54886;47.036;15.466;2023-09-18T05:39:13;10.98;;;6.65;;
68097;SDS011;54886;47.036;15.466;2023-09-18T05:41:39;8.88;;;6.28;;
68097;SDS011;54886;47.036;15.466;2023-09-18T05:44:05;10.27;;;6.10;;
68097;SDS011;54886;47.036;15.466;2023-09-18T05:49:01;10.05;;;6.47;;
68097;SDS011;54886;47.036;15.466;2023-09-18T05:51:26;12.52;;;7.22;;
68097;SDS011;54886;47.036;15.466;2023-09-18T05:53:52;11.60;;;6.95;;
68097;SDS011;54886;47.036;15.466;2023-09-18T05:56:17;9.55;;;6.72;;
68097;SDS011;54886;47.036;15.466;2023-09-18T05:58:43;11.73;;;7.53;;
68097;SDS011;54886;47.036;15.466;2023-09-18T06:01:08;16.65;;;7.50;;
68097;SDS011;54886;47.036;15.466;2023-09-18T06:03:34;12.50;;;6.60;;
68097;SDS011;54886;47.036;15.466;2023-09-18T06:06:03;11.60;;;7.57;;
68097;SDS011;54886;47.036;15.466;2023-09-18T06:08:29;11.93;;;6.82;;
68097;SDS011;54886;47.036;15.466;2023-09-18T06:10:59;9.90;;;6.80;;
68097;SDS011;54886;47.036;15.466;2023-09-18T06:13:24;11.32;;;7.50;;
68097;SDS011;54886;47.036;15.466;2023-09-18T06:15:53;11.45;;;7.18;;
68097;SDS011;54886;47.036;15.466;2023-09-18T06:18:20;9.57;;;7.13;;
68097;SDS011;54886;47.036;15.466;2023-09-18T06:20:47;10.30;;;6.50;;
68097;SDS011;54886;47.036;15.466;2023-09-18T06:23:13;11.50;;;6.55;;
68097;SDS011;54886;47.036;15.466;2023-09-18T06:25:39;13.05;;;7.32;;
68097;SDS011;54886;47.036;15.466;2023-09-18T06:28:04;10.48;;;7.03;;
68097;SDS011;54886;47.036;15.466;2023-09-18T06:30:30;10.68;;;7.57;;
68097;SDS011;54886;47.036;15.466;2023-09-18T06:32:57;12.65;;;7.65;;
68097;SDS011;54886;47.036;15.466;2023-09-18T06:35:23;14.23;;;7.63;;
68097;SDS011;54886;47.036;15.466;2023-09-18T06:37:48;10.80;;;7.32;;
68097;SDS011;54886;47.036;15.466;2023-09-18T06:40:14;13.52;;;7.95;;
68097;SDS011;54886;47.036;15.466;2023-09-18T06:42:39;13.13;;;7.65;;
68097;SDS011;54886;47.036;15.466;2023-09-18T06:45:05;12.05;;;7.45;;
68097;SDS011;54886;47.036;15.466;2023-09-18T06:47:34;12.93;;;7.88;;
68097;SDS011;54886;47.036;15.466;2023-09-18T06:50:00;9.95;;;7.50;;
68097;SDS011;54886;47.036;15.466;2023-09-18T06:52:26;11.65;;;7.70;;
68097;SDS011;54886;47.036;15.466;2023-09-18T06:54:53;13.77;;;7.25;;
68097;SDS011;54886;47.036;15.466;2023-09-18T06:57:18;11.05;;;7.07;;
68097;SDS011;54886;47.036;15.466;2023-09-18T06:59:46;11.35;;;7.32;;
68097;SDS011;54886;47.036;15.466;2023-09-18T07:02:11;12.98;;;8.18;;
68097;SDS011;54886;47.036;15.466;2023-09-18T07:04:40;12.65;;;7.53;;
68097;SDS011;54886;47.036;15.466;2023-09-18T07:07:12;10.10;;;7.70;;
68097;SDS011;54886;47.036;15.466;2023-09-18T07:09:38;12.93;;;7.60;;
68097;SDS011;54886;47.036;15.466;2023-09-18T07:12:05;10.85;;;7.07;;
68097;SDS011;54886;47.036;15.466;2023-09-18T07:14:31;11.10;;;7.10;;
68097;SDS011;54886;47.036;15.466;2023-09-18T07:16:56;12.23;;;7.45;;
68097;SDS011;54886;47.036;15.466;2023-09-18T07:19:21;11.50;;;7.57;;
68097;SDS011;54886;47.036;15.466;2023-09-18T07:21:47;12.60;;;7.20;;
68097;SDS011;54886;47.036;15.466;2023-09-18T07:24:12;10.85;;;7.30;;
68097;SDS011;54886;47.036;15.466;2023-09-18T07:26:45;12.63;;;8.27;;
68097;SDS011;54886;47.036;15.466;2023-09-18T07:29:13;11.02;;;7.10;;
68097;SDS011;54886;47.036;15.466;2023-09-18T07:34:05;10.68;;;7.28;;
68097;SDS011;54886;47.036;15.466;2023-09-18T07:36:31;15.55;;;7.63;;
68097;SDS011;54886;47.036;15.466;2023-09-18T07:38:56;12.07;;;8.13;;
68097;SDS011;54886;47.036;15.466;2023-09-18T07:41:22;11.60;;;8.57;;
68097;SDS011;54886;47.036;15.466;2023-09-18T07:43:48;12.05;;;8.52;;
68097;SDS011;54886;47.036;15.466;2023-09-18T07:46:13;11.88;;;7.65;;
68097;SDS011;54886;47.036;15.466;2023-09-18T07:48:39;11.50;;;8.02;;
68097;SDS011;54886;47.036;15.466;2023-09-18T07:51:04;13.68;;;8.85;;
68097;SDS011;54886;47.036;15.466;2023-09-18T07:53:30;11.07;;;8.43;;
68097;SDS011;54886;47.036;15.466;2023-09-18T07:55:57;13.18;;;8.95;;
68097;SDS011;54886;47.036;15.466;2023-09-18T07:58:23;17.73;;;9.07;;
68097;SDS011;54886;47.036;15.466;2023-09-18T08:00:52;13.90;;;8.55;;
68097;SDS011;54886;47.036;15.466;2023-09-18T08:03:19;10.95;;;8.10;;
68097;SDS011;54886;47.036;15.466;2023-09-18T08:05:44;10.27;;;7.97;;
68097;SDS011;54886;47.036;15.466;2023-09-18T08:08:10;12.98;;;8.90;;
68097;SDS011;54886;47.036;15.466;2023-09-18T08:10:36;13.98;;;9.60;;
68097;SDS011;54886;47.036;15.466;2023-09-18T08:13:02;12.80;;;8.63;;
68097;SDS011;54886;47.036;15.466;2023-09-18T08:15:28;14.25;;;9.10;;
68097;SDS011;54886;47.036;15.466;2023-09-18T08:17:54;13.45;;;9.48;;
68097;SDS011;54886;47.036;15.466;2023-09-18T08:20:19;16.83;;;9.88;;
68097;SDS011;54886;47.036;15.466;2023-09-18T08:22:45;15.15;;;9.32;;
68097;SDS011;54886;47.036;15.466;2023-09-18T08:25:12;15.20;;;10.03;;
68097;SDS011;54886;47.036;15.466;2023-09-18T08:27:39;14.00;;;8.98;;
68097;SDS011;54886;47.036;15.466;2023-09-18T08:30:07;11.85;;;8.75;;
68097;SDS011;54886;47.036;15.466;2023-09-18T08:34:59;13.50;;;8.18;;
68097;SDS011;54886;47.036;15.466;2023-09-18T08:37:27;10.93;;;8.43;;
68097;SDS011;54886;47.036;15.466;2023-09-18T08:39:52;13.07;;;8.50;;
68097;SDS011;54886;47.036;15.466;2023-09-18T08:42:17;14.73;;;8.88;;
68097;SDS011;54886;47.036;15.466;2023-09-18T08:44:45;11.45;;;8.05;;
68097;SDS011;54886;47.036;15.466;2023-09-18T08:47:14;11.20;;;8.48;;
68097;SDS011;54886;47.036;15.466;2023-09-18T08:49:40;11.30;;;8.40;;
68097;SDS011;54886;47.036;15.466;2023-09-18T08:52:06;12.63;;;7.95;;
68097;SDS011;54886;47.036;15.466;2023-09-18T08:54:33;10.60;;;8.02;;
68097;SDS011;54886;47.036;15.466;2023-09-18T08:56:58;10.55;;;7.60;;
68097;SDS011;54886;47.036;15.466;2023-09-18T08:59:24;10.10;;;7.45;;
68097;SDS011;54886;47.036;15.466;2023-09-18T09:04:17;11.07;;;7.38;;
68097;SDS011;54886;47.036;15.466;2023-09-18T09:06:42;9.50;;;7.20;;
68097;SDS011;54886;47.036;15.466;2023-09-18T09:09:08;12.57;;;8.07;;
68097;SDS011;54886;47.036;15.466;2023-09-18T09:11:34;10.90;;;7.32;;
68097;SDS011;54886;47.036;15.466;2023-09-18T09:14:13;9.77;;;7.30;;
68097;SDS011;54886;47.036;15.466;2023-09-18T09:16:53;9.95;;;6.82;;
68097;SDS011;54886;47.036;15.466;2023-09-18T09:19:27;10.48;;;6.65;;
68097;SDS011;54886;47.036;15.466;2023-09-18T09:21:55;9.23;;;6.95;;
68097;SDS011;54886;47.036;15.466;2023-09-18T09:24:37;9.93;;;7.28;;
68097;SDS011;54886;47.036;15.466;2023-09-18T09:27:03;8.95;;;6.35;;
68097;SDS011;54886;47.036;15.466;2023-09-18T09:29:29;8.15;;;6.30;;
68097;SDS011;54886;47.036;15.466;2023-09-18T09:31:55;8.57;;;6.40;;
68097;SDS011;54886;47.036;15.466;2023-09-18T09:34:27;10.82;;;6.53;;
68097;SDS011;54886;47.036;15.466;2023-09-18T09:36:55;9.32;;;6.35;;
68097;SDS011;54886;47.036;15.466;2023-09-18T09:39:21;9.32;;;6.72;;
68097;SDS011;54886;47.036;15.466;2023-09-18T09:41:50;9.20;;;6.38;;
68097;SDS011;54886;47.036;15.466;2023-09-18T09:44:16;10.07;;;6.30;;
68097;SDS011;54886;47.036;15.466;2023-09-18T09:46:48;9.27;;;6.13;;
68097;SDS011;54886;47.036;15.466;2023-09-18T09:49:16;10.38;;;6.78;;
68097;SDS011;54886;47.036;15.466;2023-09-18T09:51:44;9.38;;;6.38;;
68097;SDS011;54886;47.036;15.466;2023-09-18T09:54:10;10.35;;;6.22;;
68097;SDS011;54886;47.036;15.466;2023-09-18T09:56:49;8.38;;;5.55;;
68097;SDS011;54886;47.036;15.466;2023-09-18T09:59:19;8.75;;;5.90;;
68097;SDS011;54886;47.036;15.466;2023-09-18T10:01:47;8.13;;;6.53;;
68097;SDS011;54886;47.036;15.466;2023-09-18T10:04:15;9.00;;;6.07;;
68097;SDS011;54886;47.036;15.466;2023-09-18T10:06:43;8.68;;;6.18;;
68097;SDS011;54886;47.036;15.466;2023-09-18T10:09:11;7.75;;;5.93;;
68097;SDS011;54886;47.036;15.466;2023-09-18T10:11:42;9.35;;;6.45;;
68097;SDS011;54886;47.036;15.466;2023-09-18T10:14:17;10.07;;;5.90;;
68097;SDS011;54886;47.036;15.466;2023-09-18T10:16:45;8.18;;;5.85;;
68097;SDS011;54886;47.036;15.466;2023-09-18T10:19:22;8.32;;;6.00;;
68097;SDS011;54886;47.036;15.466;2023-09-18T10:24:36;9.40;;;6.13;;
68097;SDS011;54886;47.036;15.466;2023-09-18T10:27:03;8.82;;;5.30;;
68097;SDS011;54886;47.036;15.466;2023-09-18T10:29:34;7.60;;;5.90;;
68097;SDS011;54886;47.036;15.466;2023-09-18T10:32:02;8.23;;;6.05;;
68097;SDS011;54886;47.036;15.466;2023-09-18T10:34:29;9.93;;;5.65;;
68097;SDS011;54886;47.036;15.466;2023-09-18T10:36:57;8.65;;;6.03;;
68097;SDS011;54886;47.036;15.466;2023-09-18T10:39:25;8.98;;;5.80;;
68097;SDS011;54886;47.036;15.466;2023-09-18T10:41:54;7.53;;;5.97;;
68097;SDS011;54886;47.036;15.466;2023-09-18T10:44:20;8.85;;;6.00;;
68097;SDS011;54886;47.036;15.466;2023-09-18T10:46:48;8.70;;;5.50;;
68097;SDS011;54886;47.036;15.466;2023-09-18T10:49:15;8.70;;;5.60;;
68097;SDS011;54886;47.036;15.466;2023-09-18T10:51:41;7.78;;;5.63;;
68097;SDS011;54886;47.036;15.466;2023-09-18T10:54:10;7.93;;;6.10;;
68097;SDS011;54886;47.036;15.466;2023-09-18T10:56:40;7.93;;;5.70;;
68097;SDS011;54886;47.036;15.466;2023-09-18T10:59:08;8.07;;;5.70;;
68097;SDS011;54886;47.036;15.466;2023-09-18T11:01:34;8.82;;;5.53;;
68097;SDS011;54886;47.036;15.466;2023-09-18T11:04:04;7.72;;;5.75;;
68097;SDS011;54886;47.036;15.466;2023-09-18T11:09:29;8.43;;;6.30;;
68097;SDS011;54886;47.036;15.466;2023-09-18T11:14:22;7.80;;;5.80;;
68097;SDS011;54886;47.036;15.466;2023-09-18T11:16:49;8.57;;;5.70;;
68097;SDS011;54886;47.036;15.466;2023-09-18T11:19:17;7.40;;;5.65;;
68097;SDS011;54886;47.036;15.466;2023-09-18T11:21:45;8.82;;;6.05;;
68097;SDS011;54886;47.036;15.466;2023-09-18T11:24:20;8.10;;;5.57;;
68097;SDS011;54886;47.036;15.466;2023-09-18T11:26:48;8.25;;;6.00;;
68097;SDS011;54886;47.036;15.466;2023-09-18T11:29:15;8.27;;;5.88;;
68097;SDS011;54886;47.036;15.466;2023-09-18T11:31:45;9.63;;;6.50;;
68097;SDS011;54886;47.036;15.466;2023-09-18T11:34:26;8.98;;;5.93;;
68097;SDS011;54886;47.036;15.466;2023-09-18T11:37:00;8.20;;;6.18;;
68097;SDS011;54886;47.036;15.466;2023-09-18T11:39:38;7.50;;;5.85;;
68097;SDS011;54886;47.036;15.466;2023-09-18T11:42:19;8.20;;;6.13;;
68097;SDS011;54886;47.036;15.466;2023-09-18T11:44:47;8.70;;;6.40;;
68097;SDS011;54886;47.036;15.466;2023-09-18T11:47:19;10.02;;;5.63;;
68097;SDS011;54886;47.036;15.466;2023-09-18T11:52:20;8.15;;;6.05;;
68097;SDS011;54886;47.036;15.466;2023-09-18T11:57:12;9.60;;;5.90;;
68097;SDS011;54886;47.036;15.466;2023-09-18T11:59:39;7.47;;;5.75;;
68097;SDS011;54886;47.036;15.466;2023-09-18T12:02:11;8.20;;;6.10;;
68097;SDS011;54886;47.036;15.466;2023-09-18T12:04:45;8.60;;;6.05;;
68097;SDS011;54886;47.036;15.466;2023-09-18T12:07:12;8.10;;;6.13;;
68097;SDS011;54886;47.036;15.466;2023-09-18T12:09:37;10.13;;;5.85;;
68097;SDS011;54886;47.036;15.466;2023-09-18T12:12:05;7.87;;;6.13;;
68097;SDS011;54886;47.036;15.466;2023-09-18T12:14:32;7.65;;;5.75;;
68097;SDS011;54886;47.036;15.466;2023-09-18T12:17:01;7.68;;;5.93;;
68097;SDS011;54886;47.036;15.466;2023-09-18T12:19:29;9.52;;;5.63;;
68097;SDS011;54886;47.036;15.466;2023-09-18T12:21:55;8.50;;;5.83;;
68097;SDS011;54886;47.036;15.466;2023-09-18T12:24:21;8.73;;;5.78;;
68097;SDS011;54886;47.036;15.466;2023-09-18T12:26:49;8.60;;;5.40;;
68097;SDS011;54886;47.036;15.466;2023-09-18T12:29:15;8.07;;;5.82;;
68097;SDS011;54886;47.036;15.466;2023-09-18T12:31:41;8.73;;;5.40;;
68097;SDS011;54886;47.036;15.466;2023-09-18T12:34:16;8.52;;;5.60;;
68097;SDS011;54886;47.036;15.466;2023-09-18T12:36:43;9.18;;;5.55;;
68097;SDS011;54886;47.036;15.466;2023-09-18T12:39:12;9.32;;;5.78;;
68097;SDS011;54886;47.036;15.466;2023-09-18T12:41:41;7.55;;;5.88;;
68097;SDS011;54886;47.036;15.466;2023-09-18T12:44:08;7.32;;;5.82;;
68097;SDS011;54886;47.036;15.466;2023-09-18T12:46:35;8.35;;;5.90;;
68097;SDS011;54886;47.036;15.466;2023-09-18T12:49:14;9.35;;;5.60;;
68097;SDS011;54886;47.036;15.466;2023-09-18T12:51:56;9.63;;;6.00;;
68097;SDS011;54886;47.036;15.466;2023-09-18T12:54:44;8.95;;;5.68;;
68097;SDS011;54886;47.036;15.466;2023-09-18T12:57:19;10.05;;;6.00;;
68097;SDS011;54886;47.036;15.466;2023-09-18T12:59:45;8.30;;;6.00;;
68097;SDS011;54886;47.036;15.466;2023-09-18T13:02:16;8.65;;;5.68;;
68097;SDS011;54886;47.036;15.466;2023-09-18T13:04:47;8.15;;;5.47;;
68097;SDS011;54886;47.036;15.466;2023-09-18T13:07:20;7.60;;;5.68;;
68097;SDS011;54886;47.036;15.466;2023-09-18T13:12:48;9.52;;;5.57;;
68097;SDS011;54886;47.036;15.466;2023-09-18T13:15:30;9.25;;;5.40;;
68097;SDS011;54886;47.036;15.466;2023-09-18T13:17:57;8.75;;;5.53;;
68097;SDS011;54886;47.036;15.466;2023-09-18T13:20:26;8.25;;;5.88;;
68097;SDS011;54886;47.036;15.466;2023-09-18T13:22:58;8.15;;;5.50;;
68097;SDS011;54886;47.036;15.466;2023-09-18T13:25:27;10.00;;;5.63;;
68097;SDS011;54886;47.036;15.466;2023-09-18T13:28:06;9.18;;;5.68;;
68097;SDS011;54886;47.036;15.466;2023-09-18T13:30:33;10.85;;;5.68;;
68097;SDS011;54886;47.036;15.466;2023-09-18T13:33:05;7.95;;;5.45;;
68097;SDS011;54886;47.036;15.466;2023-09-18T13:35:33;8.98;;;5.60;;
68097;SDS011;54886;47.036;15.466;2023-09-18T13:37:59;13.60;;;5.50;;
68097;SDS011;54886;47.036;15.466;2023-09-18T13:40:24;8.57;;;5.70;;
68097;SDS011;54886;47.036;15.466;2023-09-18T13:42:50;11.13;;;5.90;;
68097;SDS011;54886;47.036;15.466;2023-09-18T13:45:15;10.43;;;5.45;;
68097;SDS011;54886;47.036;15.466;2023-09-18T13:47:41;14.38;;;5.90;;
68097;SDS011;54886;47.036;15.466;2023-09-18T13:50:07;13.15;;;5.88;;
68097;SDS011;54886;47.036;15.466;2023-09-18T13:52:33;16.00;;;5.88;;
68097;SDS011;54886;47.036;15.466;2023-09-18T13:55:00;11.77;;;6.00;;
68097;SDS011;54886;47.036;15.466;2023-09-18T13:57:25;9.93;;;5.93;;
68097;SDS011;54886;47.036;15.466;2023-09-18T13:59:51;8.70;;;5.60;;
68097;SDS011;54886;47.036;15.466;2023-09-18T14:02:17;12.93;;;5.93;;
68097;SDS011;54886;47.036;15.466;2023-09-18T14:04:43;13.70;;;5.95;;
68097;SDS011;54886;47.036;15.466;2023-09-18T14:07:09;9.60;;;5.70;;
68097;SDS011;54886;47.036;15.466;2023-09-18T14:09:36;10.70;;;5.60;;
68097;SDS011;54886;47.036;15.466;2023-09-18T14:12:02;11.90;;;5.80;;
68097;SDS011;54886;47.036;15.466;2023-09-18T14:14:28;14.27;;;5.78;;
68097;SDS011;54886;47.036;15.466;2023-09-18T14:16:53;14.30;;;5.93;;
68097;SDS011;54886;47.036;15.466;2023-09-18T14:19:19;11.07;;;5.75;;
68097;SDS011;54886;47.036;15.466;2023-09-18T14:21:44;10.30;;;5.35;;
68097;SDS011;54886;47.036;15.466;2023-09-18T14:24:10;13.32;;;5.85;;
68097;SDS011;54886;47.036;15.466;2023-09-18T14:26:36;11.88;;;5.82;;
68097;SDS011;54886;47.036;15.466;2023-09-18T14:29:08;12.77;;;6.07;;
68097;SDS011;54886;47.036;15.466;2023-09-18T14:31:34;10.95;;;5.85;;
68097;SDS011;54886;47.036;15.466;2023-09-18T14:34:01;9.10;;;5.90;;
68097;SDS011;54886;47.036;15.466;2023-09-18T14:36:26;13.13;;;5.75;;
68097;SDS011;54886;47.036;15.466;2023-09-18T14:38:51;13.73;;;6.22;;
68097;SDS011;54886;47.036;15.466;2023-09-18T14:41:17;12.65;;;5.80;;
68097;SDS011;54886;47.036;15.466;2023-09-18T14:43:44;10.57;;;6.10;;
68097;SDS011;54886;47.036;15.466;2023-09-18T14:46:10;9.95;;;5.88;;
68097;SDS011;54886;47.036;15.466;2023-09-18T14:48:35;10.25;;;5.95;;
68097;SDS011;54886;47.036;15.466;2023-09-18T14:51:01;12.05;;;5.95;;
68097;SDS011;54886;47.036;15.466;2023-09-18T14:53:27;9.73;;;6.40;;
68097;SDS011;54886;47.036;15.466;2023-09-18T14:55:53;12.00;;;5.88;;
68097;SDS011;54886;47.036;15.466;2023-09-18T14:58:20;8.98;;;5.55;;
68097;SDS011;54886;47.036;15.466;2023-09-18T15:00:48;8.38;;;5.45;;
68097;SDS011;54886;47.036;15.466;2023-09-18T15:03:14;8.98;;;5.57;;